createdAt,value
2022-12-16T00:01:25.170Z,10.85
2022-12-16T00:03:54.921Z,11.32
2022-12-16T00:06:25.769Z,11.45
2022-12-16T00:08:52.799Z,9.90
2022-12-16T00:11:20.960Z,9.07
2022-12-16T00:13:48.075Z,10.45
2022-12-16T00:16:17.305Z,8.30
2022-12-16T00:18:45.416Z,8.50
2022-12-16T00:21:12.838Z,9.15
2022-12-16T00:23:41.889Z,7.10
2022-12-16T00:26:09.620Z,9.20
2022-12-16T00:28:37.100Z,9.30
2022-12-16T00:31:05.034Z,9.45
2022-12-16T00:33:33.302Z,10.32
2022-12-16T00:36:00.505Z,10.73
2022-12-16T00:38:27.839Z,11.45
2022-12-16T00:40:55.037Z,9.23
2022-12-16T00:43:23.143Z,14.50
2022-12-16T00:45:51.957Z,9.20
2022-12-16T00:48:23.137Z,9.55
2022-12-16T00:50:52.352Z,10.40
2022-12-16T00:53:23.730Z,11.25
2022-12-16T00:55:51.148Z,9.93
2022-12-16T00:58:18.917Z,9.82
2022-12-16T01:00:45.947Z,9.25
2022-12-16T01:03:17.984Z,9.07
2022-12-16T01:05:48.356Z,10.55
2022-12-16T01:08:15.511Z,10.88
2022-12-16T01:10:42.652Z,7.88
2022-12-16T01:13:09.707Z,8.20
2022-12-16T01:15:38.040Z,8.35
2022-12-16T01:18:05.451Z,10.15
2022-12-16T01:20:34.489Z,9.57
2022-12-16T01:23:01.484Z,9.23
2022-12-16T01:25:28.566Z,11.40
2022-12-16T01:27:55.543Z,10.00
2022-12-16T01:30:22.996Z,9.45
2022-12-16T01:32:50.227Z,9.63
2022-12-16T01:35:50.902Z,9.43
2022-12-16T01:38:04.948Z,10.00
2022-12-16T01:40:31.981Z,10.50
2022-12-16T01:42:58.918Z,10.50
2022-12-16T01:45:31.715Z,10.07
2022-12-16T01:48:06.767Z,11.27
2022-12-16T01:50:34.624Z,10.25
2022-12-16T01:53:04.760Z,10.07
2022-12-16T01:55:46.239Z,10.45
2022-12-16T01:58:18.764Z,10.85
2022-12-16T02:00:45.768Z,10.70
2022-12-16T02:03:12.934Z,9.77
2022-12-16T02:05:42.498Z,11.00
2022-12-16T02:08:09.466Z,11.10
2022-12-16T02:10:42.311Z,11.38
2022-12-16T02:13:33.849Z,11.63
2022-12-16T02:16:15.254Z,11.60
2022-12-16T02:19:08.395Z,10.43
2022-12-16T02:22:08.312Z,10.65
2022-12-16T02:24:38.364Z,9.80
2022-12-16T02:27:11.159Z,10.35
2022-12-16T02:29:56.564Z,10.63
2022-12-16T02:32:53.365Z,9.20
2022-12-16T02:35:34.602Z,10.27
2022-12-16T02:38:13.511Z,8.80
2022-12-16T02:40:57.623Z,10.55
2022-12-16T02:46:15.259Z,9.00
2022-12-16T02:48:42.276Z,8.60
2022-12-16T02:51:09.814Z,10.57
2022-12-16T02:53:39.452Z,11.10
2022-12-16T02:56:12.182Z,9.80
2022-12-16T02:58:51.279Z,9.65
2022-12-16T03:01:52.943Z,10.70
2022-12-16T03:04:27.712Z,10.18
2022-12-16T03:06:56.655Z,11.90
2022-12-16T03:09:28.447Z,14.82
2022-12-16T03:11:56.798Z,15.23
2022-12-16T03:14:27.724Z,18.88
2022-12-16T03:16:55.494Z,24.63
2022-12-16T03:19:24.881Z,26.20
2022-12-16T03:22:10.723Z,40.78
2022-12-16T03:24:38.075Z,24.15
2022-12-16T03:27:23.769Z,20.73
2022-12-16T03:29:56.627Z,24.75
2022-12-16T03:32:51.969Z,26.97
2022-12-16T03:35:43.233Z,24.00
2022-12-16T03:38:12.335Z,19.17
2022-12-16T03:40:42.023Z,32.35
2022-12-16T03:43:11.984Z,30.20
2022-12-16T03:45:41.807Z,34.38
2022-12-16T03:48:10.945Z,29.15
2022-12-16T03:50:39.458Z,32.10
2022-12-16T03:53:07.434Z,27.02
2022-12-16T03:55:34.589Z,27.10
2022-12-16T03:58:01.560Z,20.95
2022-12-16T04:00:28.650Z,16.17
2022-12-16T04:02:55.813Z,15.30
2022-12-16T04:05:23.382Z,14.38
2022-12-16T04:07:50.494Z,14.70
2022-12-16T04:10:37.556Z,19.60
2022-12-16T04:13:23.149Z,23.42
2022-12-16T04:16:08.530Z,18.90
2022-12-16T04:18:54.270Z,16.90
2022-12-16T04:21:39.731Z,16.63
2022-12-16T04:24:19.695Z,18.98
2022-12-16T04:27:15.116Z,18.30
2022-12-16T04:30:03.210Z,17.17
2022-12-16T04:32:52.114Z,15.23
2022-12-16T04:35:37.793Z,15.07
2022-12-16T04:38:23.896Z,16.20
2022-12-16T04:41:09.298Z,15.55
2022-12-16T04:43:54.821Z,16.27
2022-12-16T04:46:40.491Z,16.52
2022-12-16T04:49:25.938Z,13.90
2022-12-16T04:52:11.327Z,15.00
2022-12-16T04:54:56.823Z,15.18
2022-12-16T04:57:42.215Z,14.10
2022-12-16T05:00:29.123Z,13.95
2022-12-16T05:03:15.974Z,13.88
2022-12-16T05:06:04.311Z,15.32
2022-12-16T05:08:49.952Z,14.30
2022-12-16T05:11:35.300Z,14.82
2022-12-16T05:14:21.278Z,14.40
2022-12-16T05:17:06.779Z,14.32
2022-12-16T05:19:52.059Z,14.02
2022-12-16T05:22:54.669Z,15.88
2022-12-16T05:25:40.723Z,14.02
2022-12-16T05:28:26.609Z,15.38
2022-12-16T05:31:12.190Z,16.05
2022-12-16T05:33:57.454Z,14.63
2022-12-16T05:36:42.829Z,15.35
2022-12-16T05:39:28.271Z,17.77
2022-12-16T05:42:14.556Z,24.90
2022-12-16T05:45:00.157Z,21.70
2022-12-16T05:47:46.447Z,25.83
2022-12-16T05:50:31.922Z,25.30
2022-12-16T05:53:27.221Z,26.98
2022-12-16T05:56:13.311Z,25.92
2022-12-16T05:58:58.705Z,24.63
2022-12-16T06:01:44.394Z,21.52
2022-12-16T06:04:30.140Z,20.83
2022-12-16T06:07:15.454Z,19.20
2022-12-16T06:10:01.117Z,16.33
2022-12-16T06:12:48.404Z,18.15
2022-12-16T06:15:33.979Z,18.35
2022-12-16T06:18:19.450Z,18.13
2022-12-16T06:21:04.869Z,18.13
2022-12-16T06:23:50.196Z,18.48
2022-12-16T06:26:35.619Z,20.30
2022-12-16T06:29:21.059Z,17.23
2022-12-16T06:32:06.484Z,17.58
2022-12-16T06:34:51.684Z,17.58
2022-12-16T06:37:37.014Z,18.48
2022-12-16T06:40:22.746Z,17.25
2022-12-16T06:46:17.123Z,18.25
2022-12-16T06:49:02.632Z,19.23
2022-12-16T06:51:48.008Z,22.50
2022-12-16T06:54:33.584Z,24.25
2022-12-16T06:57:19.025Z,25.80
2022-12-16T07:00:04.530Z,20.27
2022-12-16T07:02:50.058Z,22.52
2022-12-16T07:05:35.618Z,22.33
2022-12-16T07:08:20.911Z,22.02
2022-12-16T07:11:16.053Z,19.23
2022-12-16T07:14:02.949Z,18.10
2022-12-16T07:16:48.430Z,19.77
2022-12-16T07:19:34.337Z,15.95
2022-12-16T07:22:19.643Z,16.55
2022-12-16T07:25:05.088Z,15.77
2022-12-16T07:27:50.612Z,14.70
2022-12-16T07:30:35.970Z,12.52
2022-12-16T07:33:21.251Z,11.20
2022-12-16T07:36:06.552Z,12.13
2022-12-16T07:38:54.850Z,12.65
2022-12-16T07:41:40.366Z,17.33
2022-12-16T07:44:26.287Z,15.05
2022-12-16T07:47:12.110Z,12.48
2022-12-16T07:49:57.422Z,15.77
2022-12-16T07:52:42.923Z,19.23
2022-12-16T07:55:28.758Z,17.30
2022-12-16T07:58:14.418Z,16.33
2022-12-16T08:01:01.721Z,16.23
2022-12-16T08:03:49.284Z,18.98
2022-12-16T08:06:38.789Z,16.90
2022-12-16T08:09:25.714Z,17.95
2022-12-16T08:12:10.995Z,17.08
2022-12-16T08:14:56.466Z,21.92
2022-12-16T08:17:41.828Z,23.70
2022-12-16T08:20:27.794Z,20.05
2022-12-16T08:23:13.057Z,20.63
2022-12-16T08:25:58.491Z,21.80
2022-12-16T08:28:46.923Z,21.13
2022-12-16T08:31:32.292Z,27.27
2022-12-16T08:34:17.600Z,23.50
2022-12-16T08:37:03.131Z,19.85
2022-12-16T08:39:54.848Z,17.73
2022-12-16T08:42:50.407Z,15.30
2022-12-16T08:45:36.222Z,20.42
2022-12-16T08:48:22.028Z,21.08
2022-12-16T08:51:07.198Z,21.23
2022-12-16T08:53:52.588Z,18.77
2022-12-16T08:56:38.022Z,23.70
2022-12-16T08:59:23.273Z,32.08
2022-12-16T09:02:08.794Z,21.15
2022-12-16T09:04:54.741Z,22.13
2022-12-16T09:07:40.951Z,19.92
2022-12-16T09:10:26.397Z,20.42
2022-12-16T09:13:11.723Z,19.95
2022-12-16T09:15:57.288Z,21.70
2022-12-16T09:18:42.591Z,17.00
2022-12-16T09:21:31.882Z,15.93
2022-12-16T09:24:19.103Z,15.05
2022-12-16T09:27:04.435Z,14.10
2022-12-16T09:29:49.786Z,14.85
2022-12-16T09:32:35.303Z,25.08
2022-12-16T09:35:20.650Z,12.88
2022-12-16T09:38:06.419Z,14.00
2022-12-16T09:40:52.198Z,13.93
2022-12-16T09:43:45.073Z,15.32
2022-12-16T09:46:41.561Z,16.88
2022-12-16T09:49:30.026Z,19.02
2022-12-16T09:52:18.648Z,17.35
2022-12-16T09:55:05.249Z,22.45
2022-12-16T09:58:07.028Z,20.98
2022-12-16T10:00:53.107Z,13.77
2022-12-16T10:03:48.186Z,14.88
2022-12-16T10:06:52.317Z,13.93
2022-12-16T10:10:02.193Z,12.23
2022-12-16T10:13:15.102Z,12.50
2022-12-16T10:16:27.155Z,11.13
2022-12-16T10:19:15.663Z,11.10
2022-12-16T10:22:16.312Z,11.75
2022-12-16T10:25:25.010Z,10.65
2022-12-16T10:28:16.916Z,12.00
2022-12-16T10:31:02.877Z,11.00
2022-12-16T10:33:48.698Z,11.48
2022-12-16T10:36:40.631Z,10.40
2022-12-16T10:39:49.333Z,9.25
2022-12-16T10:42:48.512Z,9.35
2022-12-16T10:45:39.994Z,8.68
2022-12-16T10:48:30.212Z,8.90
2022-12-16T10:51:18.973Z,8.55
2022-12-16T10:54:09.759Z,10.60
2022-12-16T10:57:17.060Z,19.77
2022-12-16T11:00:02.327Z,29.67
2022-12-16T11:02:48.486Z,25.27
2022-12-16T11:05:49.511Z,25.63
2022-12-16T11:08:55.536Z,33.08
2022-12-16T11:11:49.199Z,40.38
2022-12-16T11:15:12.401Z,28.30
2022-12-16T11:17:56.430Z,43.13
2022-12-16T11:20:44.823Z,43.60
2022-12-16T11:23:39.467Z,34.70
2022-12-16T11:26:37.086Z,44.10
2022-12-16T11:29:24.427Z,38.05
2022-12-16T11:32:40.831Z,56.60
2022-12-16T11:35:33.824Z,49.80
2022-12-16T11:38:20.816Z,47.53
2022-12-16T11:41:08.744Z,32.53
2022-12-16T11:43:56.919Z,59.42
2022-12-16T11:46:47.507Z,52.45
2022-12-16T11:49:49.531Z,61.28
2022-12-16T11:52:38.067Z,76.35
2022-12-16T11:56:04.136Z,56.85
2022-12-16T11:58:56.899Z,53.85
2022-12-16T12:01:49.432Z,40.25
2022-12-16T12:04:42.493Z,48.15
2022-12-16T12:07:30.687Z,34.17
2022-12-16T12:11:08.446Z,45.17
2022-12-16T12:14:03.645Z,51.90
2022-12-16T12:17:13.773Z,74.82
2022-12-16T12:20:05.239Z,44.00
2022-12-16T12:22:57.230Z,58.95
2022-12-16T12:26:21.191Z,34.78
2022-12-16T12:29:19.836Z,36.50
2022-12-16T12:32:11.320Z,44.22
2022-12-16T12:35:18.280Z,46.15
2022-12-16T12:38:20.962Z,52.83
2022-12-16T12:41:21.144Z,49.08
2022-12-16T12:44:42.372Z,51.08
2022-12-16T12:47:35.955Z,49.30
2022-12-16T12:50:27.352Z,58.28
2022-12-16T12:53:34.261Z,38.90
2022-12-16T12:56:19.846Z,67.55
2022-12-16T12:59:09.041Z,54.78
2022-12-16T13:01:57.031Z,61.80
2022-12-16T13:04:43.769Z,54.20
2022-12-16T13:07:29.747Z,40.50
2022-12-16T13:10:33.093Z,50.20
2022-12-16T13:13:34.200Z,51.42
2022-12-16T13:16:22.034Z,54.00
2022-12-16T13:19:09.749Z,47.70
2022-12-16T13:21:56.684Z,47.92
2022-12-16T13:24:45.631Z,39.70
2022-12-16T13:27:35.595Z,44.35
2022-12-16T13:30:45.709Z,64.93
2022-12-16T13:33:46.637Z,44.00
2022-12-16T13:36:34.562Z,59.92
2022-12-16T13:39:44.289Z,51.67
2022-12-16T13:42:51.618Z,52.88
2022-12-16T13:45:55.486Z,54.47
2022-12-16T13:48:50.930Z,60.65
2022-12-16T13:51:55.109Z,73.63
2022-12-16T13:55:07.372Z,67.43
2022-12-16T13:57:59.480Z,76.45
2022-12-16T14:00:46.502Z,66.25
2022-12-16T14:03:56.778Z,69.15
2022-12-16T14:06:44.208Z,56.13
2022-12-16T14:09:51.020Z,66.75
2022-12-16T14:12:55.825Z,60.45
2022-12-16T14:16:31.824Z,63.97
2022-12-16T14:19:28.070Z,63.20
2022-12-16T14:22:26.151Z,66.78
2022-12-16T14:25:11.902Z,55.78
2022-12-16T14:27:58.460Z,65.78
2022-12-16T14:30:44.812Z,62.42
2022-12-16T14:33:46.403Z,63.97
2022-12-16T14:36:46.291Z,63.92
2022-12-16T14:39:46.357Z,53.13
2022-12-16T14:42:52.259Z,58.80
2022-12-16T14:45:48.760Z,53.22
2022-12-16T14:48:49.588Z,46.03
2022-12-16T14:51:50.967Z,44.03
2022-12-16T14:54:42.986Z,45.65
2022-12-16T14:57:31.865Z,40.05
2022-12-16T15:00:28.467Z,43.92
2022-12-16T15:03:42.294Z,41.03
2022-12-16T15:06:35.270Z,41.90
2022-12-16T15:09:23.470Z,40.55
2022-12-16T15:12:13.189Z,37.88
2022-12-16T15:15:00.496Z,40.83
2022-12-16T15:17:50.210Z,40.85
2022-12-16T15:20:41.170Z,42.22
2022-12-16T15:23:42.355Z,51.67
2022-12-16T15:26:28.587Z,47.13
2022-12-16T15:29:14.033Z,47.03
2022-12-16T15:32:03.147Z,47.83
2022-12-16T15:35:04.737Z,37.80
2022-12-16T15:38:00.750Z,35.28
2022-12-16T15:40:51.747Z,39.17
2022-12-16T15:43:56.126Z,34.03
2022-12-16T15:46:47.911Z,34.08
2022-12-16T15:49:50.652Z,44.08
2022-12-16T15:53:00.974Z,35.13
2022-12-16T15:55:50.474Z,36.90
2022-12-16T15:58:44.899Z,34.70
2022-12-16T16:04:16.787Z,42.88
2022-12-16T16:07:08.318Z,42.17
2022-12-16T16:09:56.392Z,37.15
2022-12-16T16:12:44.151Z,34.65
2022-12-16T16:15:32.121Z,39.03
2022-12-16T16:18:24.208Z,34.38
2022-12-16T16:21:10.713Z,40.50
2022-12-16T16:23:56.511Z,40.83
2022-12-16T16:26:46.348Z,39.45
2022-12-16T16:29:31.653Z,33.03
2022-12-16T16:32:16.928Z,32.88
2022-12-16T16:35:02.479Z,35.22
2022-12-16T16:37:47.903Z,33.38
2022-12-16T16:40:37.622Z,33.17
2022-12-16T16:46:53.807Z,30.50
2022-12-16T16:49:51.985Z,30.77
2022-12-16T16:52:39.898Z,37.95
2022-12-16T16:55:28.366Z,38.05
2022-12-16T16:58:13.922Z,35.40
2022-12-16T17:00:59.496Z,35.58
2022-12-16T17:03:45.294Z,37.08
2022-12-16T17:06:30.848Z,42.67
2022-12-16T17:09:16.232Z,38.63
2022-12-16T17:12:01.951Z,51.28
2022-12-16T17:14:47.368Z,44.17
2022-12-16T17:17:32.776Z,45.63
2022-12-16T17:20:18.069Z,44.30
2022-12-16T17:23:03.373Z,45.00
2022-12-16T17:25:48.829Z,46.20
2022-12-16T17:28:34.715Z,48.00
2022-12-16T17:31:20.161Z,55.53
2022-12-16T17:34:05.580Z,50.30
2022-12-16T17:36:50.966Z,55.88
2022-12-16T17:39:36.446Z,71.45
2022-12-16T17:42:22.021Z,60.72
2022-12-16T17:45:07.391Z,57.83
2022-12-16T17:47:52.879Z,59.88
2022-12-16T17:50:38.232Z,63.17
2022-12-16T17:53:23.762Z,75.20
2022-12-16T17:56:09.079Z,73.00
2022-12-16T17:58:56.865Z,81.00
2022-12-16T18:01:43.657Z,77.80
2022-12-16T18:04:29.407Z,95.65
2022-12-16T18:07:14.639Z,69.85
2022-12-16T18:10:00.565Z,91.50
2022-12-16T18:12:45.920Z,80.65
2022-12-16T18:15:31.383Z,77.97
2022-12-16T18:18:16.660Z,74.68
2022-12-16T18:21:01.959Z,63.92
2022-12-16T18:23:50.949Z,61.42
2022-12-16T18:26:36.438Z,56.03
2022-12-16T18:29:22.345Z,56.20
2022-12-16T18:32:08.641Z,54.70
2022-12-16T18:34:53.893Z,59.17
2022-12-16T18:37:39.347Z,45.88
2022-12-16T18:40:25.610Z,54.47
2022-12-16T18:43:11.026Z,52.95
2022-12-16T18:45:56.511Z,55.30
2022-12-16T18:48:41.955Z,57.22
2022-12-16T18:51:27.587Z,45.63
2022-12-16T18:54:12.990Z,46.63
2022-12-16T18:56:58.357Z,44.33
2022-12-16T18:59:43.838Z,51.97
2022-12-16T19:02:29.193Z,54.17
2022-12-16T19:05:14.960Z,59.47
2022-12-16T19:08:00.292Z,56.25
2022-12-16T19:10:45.814Z,53.65
2022-12-16T19:13:34.786Z,48.20
2022-12-16T19:16:20.161Z,43.92
2022-12-16T19:19:06.110Z,46.53
2022-12-16T19:21:52.265Z,48.67
2022-12-16T19:24:42.845Z,44.92
2022-12-16T19:27:28.663Z,42.45
2022-12-16T19:30:14.098Z,47.28
2022-12-16T19:32:59.566Z,46.92
2022-12-16T19:35:45.056Z,47.30
2022-12-16T19:38:32.389Z,49.25
2022-12-16T19:41:17.815Z,49.63
2022-12-16T19:44:06.545Z,49.78
2022-12-16T19:49:58.620Z,41.42
2022-12-16T19:52:44.128Z,46.45
2022-12-16T19:55:29.693Z,46.03
2022-12-16T19:58:15.629Z,45.10
2022-12-16T20:01:01.707Z,41.38
2022-12-16T20:03:48.367Z,42.25
2022-12-16T20:06:34.932Z,42.28
2022-12-16T20:09:23.058Z,40.95
2022-12-16T20:12:08.579Z,39.70
2022-12-16T20:14:56.427Z,45.58
2022-12-16T20:17:42.301Z,40.15
2022-12-16T20:20:28.263Z,42.63
2022-12-16T20:23:14.840Z,40.97
2022-12-16T20:26:00.361Z,38.10
2022-12-16T20:28:45.981Z,37.83
2022-12-16T20:31:31.539Z,45.00
2022-12-16T20:34:17.313Z,39.22
2022-12-16T20:37:02.821Z,42.05
2022-12-16T20:39:56.313Z,43.25
2022-12-16T20:42:43.130Z,40.65
2022-12-16T20:45:29.820Z,44.40
2022-12-16T20:48:15.170Z,39.42
2022-12-16T20:51:00.987Z,40.63
2022-12-16T20:53:47.238Z,47.65
2022-12-16T20:56:32.727Z,41.00
2022-12-16T20:59:18.236Z,39.15
2022-12-16T21:05:08.990Z,41.88
2022-12-16T21:07:55.014Z,37.95
2022-12-16T21:10:42.842Z,38.17
2022-12-16T21:13:34.273Z,33.22
2022-12-16T21:16:22.111Z,47.45
2022-12-16T21:19:07.774Z,55.20
2022-12-16T21:21:53.827Z,71.97
2022-12-16T21:24:39.648Z,75.03
2022-12-16T21:27:25.111Z,83.85
2022-12-16T21:30:10.702Z,87.28
2022-12-16T21:36:01.926Z,95.72
2022-12-16T21:38:47.632Z,91.82
2022-12-16T21:41:33.127Z,103.93
2022-12-16T21:44:18.476Z,90.35
2022-12-16T21:47:04.768Z,95.55
2022-12-16T21:50:09.930Z,105.50
2022-12-16T21:52:56.401Z,101.47
2022-12-16T21:55:42.069Z,104.88
2022-12-16T21:58:31.222Z,104.38
2022-12-16T22:01:17.431Z,66.63
2022-12-16T22:04:13.624Z,58.13
2022-12-16T22:06:59.258Z,56.65
2022-12-16T22:09:44.785Z,55.38
2022-12-16T22:12:30.320Z,54.88
2022-12-16T22:15:15.634Z,60.83
2022-12-16T22:18:00.991Z,55.60
2022-12-16T22:20:47.278Z,59.25
2022-12-16T22:23:33.027Z,54.42
2022-12-16T22:26:20.484Z,56.88
2022-12-16T22:29:06.179Z,54.78
2022-12-16T22:31:52.247Z,49.55
2022-12-16T22:34:37.929Z,53.80
2022-12-16T22:37:35.140Z,46.83
2022-12-16T22:40:21.277Z,52.40
2022-12-16T22:43:07.521Z,60.78
2022-12-16T22:45:53.260Z,55.97
2022-12-16T22:48:42.528Z,59.42
2022-12-16T22:51:32.860Z,57.13
2022-12-16T22:54:19.668Z,53.83
2022-12-16T22:57:05.634Z,57.97
2022-12-16T22:59:51.914Z,56.83
2022-12-16T23:02:37.331Z,45.72
2022-12-16T23:05:28.266Z,49.00
2022-12-16T23:08:14.417Z,53.85
2022-12-16T23:11:00.811Z,57.92
2022-12-16T23:13:46.632Z,54.00
2022-12-16T23:16:31.959Z,48.95
2022-12-16T23:19:17.178Z,49.78
2022-12-16T23:22:02.515Z,49.20
2022-12-16T23:24:47.782Z,44.92
2022-12-16T23:27:33.087Z,42.72
2022-12-16T23:30:18.658Z,45.65
2022-12-16T23:33:05.366Z,44.40
2022-12-16T23:35:51.090Z,42.63
2022-12-16T23:38:38.324Z,42.58
2022-12-16T23:41:24.734Z,63.42
2022-12-16T23:44:12.639Z,131.25
2022-12-16T23:46:59.097Z,130.88
2022-12-16T23:49:44.782Z,101.30
2022-12-16T23:52:31.032Z,107.90
2022-12-16T23:55:17.349Z,105.28
2022-12-16T23:58:03.936Z,88.97
